createdAt,value
2018-03-07T00:01:49.415Z,12.83
2018-03-07T00:04:21.919Z,11.37
2018-03-07T00:06:54.057Z,11.13
2018-03-07T00:09:25.449Z,11.40
2018-03-07T00:11:57.427Z,10.53
2018-03-07T00:14:30.495Z,10.57
2018-03-07T00:17:03.590Z,9.60
2018-03-07T00:19:35.714Z,10.30
2018-03-07T00:22:10.271Z,10.00
2018-03-07T00:24:42.553Z,10.20
2018-03-07T00:27:16.265Z,9.40
2018-03-07T00:29:50.263Z,9.13
2018-03-07T00:32:24.580Z,9.48
2018-03-07T00:34:57.256Z,9.60
2018-03-07T00:37:29.003Z,9.40
2018-03-07T00:40:01.645Z,8.98
2018-03-07T00:42:34.573Z,9.57
2018-03-07T00:45:06.038Z,9.55
2018-03-07T00:47:37.869Z,9.05
2018-03-07T00:50:09.669Z,9.07
2018-03-07T00:52:41.141Z,9.07
2018-03-07T00:55:13.175Z,8.73
2018-03-07T00:57:45.488Z,9.03
2018-03-07T01:00:18.357Z,8.37
2018-03-07T01:02:51.503Z,9.07
2018-03-07T01:05:24.969Z,8.90
2018-03-07T01:07:57.217Z,9.05
2018-03-07T01:10:34.146Z,8.27
2018-03-07T01:13:06.726Z,7.87
2018-03-07T01:15:38.987Z,8.70
2018-03-07T01:18:10.830Z,9.68
2018-03-07T01:20:42.835Z,7.72
2018-03-07T01:23:15.830Z,9.70
2018-03-07T01:25:47.115Z,8.02
2018-03-07T01:28:18.640Z,8.05
2018-03-07T01:30:51.333Z,8.02
2018-03-07T01:33:23.992Z,8.68
2018-03-07T01:35:56.345Z,8.05
2018-03-07T01:38:28.073Z,9.18
2018-03-07T01:41:00.452Z,8.63
2018-03-07T01:43:33.457Z,8.55
2018-03-07T01:46:05.096Z,8.38
2018-03-07T01:48:37.001Z,8.52
2018-03-07T01:51:08.714Z,7.62
2018-03-07T01:53:41.138Z,8.45
2018-03-07T01:56:14.202Z,7.90
2018-03-07T01:58:47.041Z,8.38
2018-03-07T02:01:19.433Z,7.65
2018-03-07T03:24:18.884Z,8.32
2018-03-07T03:26:51.008Z,9.00
2018-03-07T03:29:23.562Z,9.00
2018-03-07T03:31:56.563Z,8.48
2018-03-07T03:34:31.061Z,9.20
2018-03-07T03:37:05.755Z,8.20
2018-03-07T03:39:39.664Z,8.90
2018-03-07T03:42:15.949Z,9.10
2018-03-07T03:44:48.218Z,8.30
2018-03-07T03:47:21.566Z,8.75
2018-03-07T03:49:54.966Z,8.45
2018-03-07T03:52:28.682Z,8.35
2018-03-07T03:55:00.409Z,9.00
2018-03-07T03:57:32.881Z,7.97
2018-03-07T04:00:06.482Z,9.02
2018-03-07T04:02:39.377Z,8.27
2018-03-07T04:05:12.198Z,8.60
2018-03-07T04:07:44.484Z,9.20
2018-03-07T04:10:18.220Z,7.45
2018-03-07T04:12:52.053Z,8.30
2018-03-07T04:15:23.745Z,8.02
2018-03-07T04:17:56.326Z,8.20
2018-03-07T04:20:28.039Z,9.00
2018-03-07T04:22:59.787Z,8.25
2018-03-07T04:25:31.775Z,8.55
2018-03-07T04:28:04.499Z,8.38
2018-03-07T04:30:39.331Z,7.97
2018-03-07T04:33:13.416Z,7.97
2018-03-07T04:35:46.407Z,8.57
2018-03-07T04:38:22.990Z,8.68
2018-03-07T04:40:55.851Z,8.45
2018-03-07T04:43:27.689Z,8.20
2018-03-07T04:45:59.228Z,8.35
2018-03-07T04:48:31.907Z,8.60
2018-03-07T04:51:04.451Z,7.93
2018-03-07T04:53:36.017Z,8.00
2018-03-07T04:56:07.759Z,8.43
2018-03-07T04:58:40.775Z,8.13
2018-03-07T05:01:13.225Z,8.27
2018-03-07T05:03:45.276Z,8.43
2018-03-07T05:06:17.438Z,8.65
2018-03-07T05:18:50.499Z,8.70
2018-03-07T05:21:22.155Z,8.02
2018-03-07T05:23:53.066Z,8.65
2018-03-07T05:26:24.531Z,7.75
2018-03-07T05:28:57.811Z,8.40
2018-03-07T05:31:29.775Z,8.50
2018-03-07T05:34:04.666Z,8.52
2018-03-07T05:36:42.138Z,8.95
2018-03-07T05:39:18.517Z,8.52
2018-03-07T05:41:51.316Z,8.80
2018-03-07T05:44:22.762Z,9.05
2018-03-07T05:46:54.370Z,8.48
2018-03-07T05:49:25.818Z,7.82
2018-03-07T05:51:57.467Z,9.02
2018-03-07T05:54:31.137Z,9.25
2018-03-07T05:57:08.411Z,8.57
2018-03-07T05:59:47.113Z,8.95
2018-03-07T06:02:21.495Z,8.43
2018-03-07T06:04:56.938Z,9.45
2018-03-07T06:07:35.982Z,9.27
2018-03-07T06:10:09.362Z,8.38
2018-03-07T06:12:41.616Z,9.85
2018-03-07T06:15:14.977Z,9.27
2018-03-07T06:17:47.103Z,8.88
2018-03-07T06:20:20.315Z,9.65
2018-03-07T06:23:19.442Z,9.27
2018-03-07T06:25:52.506Z,9.85
2018-03-07T06:28:25.844Z,10.68
2018-03-07T06:31:01.037Z,11.80
2018-03-07T06:33:32.908Z,10.13
2018-03-07T06:36:04.545Z,10.40
2018-03-07T06:38:36.316Z,11.95
2018-03-07T06:41:09.813Z,11.18
2018-03-07T06:43:42.160Z,12.02
2018-03-07T06:46:14.520Z,11.57
2018-03-07T06:48:49.726Z,12.18
2018-03-07T06:51:33.462Z,11.20
2018-03-07T06:54:07.584Z,10.88
2018-03-07T06:56:39.740Z,11.00
2018-03-07T06:59:11.063Z,11.18
2018-03-07T07:01:42.364Z,11.68
2018-03-07T07:04:14.666Z,11.60
2018-03-07T07:06:46.394Z,13.25
2018-03-07T07:09:23.746Z,14.60
2018-03-07T07:11:55.981Z,13.25
2018-03-07T07:14:27.586Z,13.13
2018-03-07T07:16:58.953Z,12.43
2018-03-07T07:19:31.028Z,14.05
2018-03-07T07:22:03.791Z,12.88
2018-03-07T07:24:34.928Z,12.90
2018-03-07T07:27:06.554Z,12.80
2018-03-07T07:29:38.426Z,12.32
2018-03-07T07:32:09.804Z,12.33
2018-03-07T07:34:40.746Z,13.10
2018-03-07T07:37:14.038Z,12.57
2018-03-07T07:39:45.939Z,15.33
2018-03-07T07:42:17.431Z,13.67
2018-03-07T07:44:49.782Z,14.80
2018-03-07T07:47:24.030Z,12.87
2018-03-07T07:49:56.836Z,12.37
2018-03-07T07:52:30.278Z,13.97
2018-03-07T07:55:03.378Z,13.80
2018-03-07T07:57:37.059Z,14.00
2018-03-07T08:00:12.226Z,13.77
2018-03-07T08:02:45.864Z,14.77
2018-03-07T08:05:19.992Z,14.53
2018-03-07T08:07:52.778Z,14.17
2018-03-07T08:10:27.122Z,14.53
2018-03-07T08:13:02.689Z,15.47
2018-03-07T08:15:35.849Z,15.63
2018-03-07T08:18:08.540Z,16.00
2018-03-07T08:20:41.448Z,14.77
2018-03-07T08:23:18.940Z,16.27
2018-03-07T08:25:51.971Z,15.10
2018-03-07T08:28:25.462Z,14.37
2018-03-07T08:30:57.407Z,15.13
2018-03-07T08:33:28.654Z,14.87
2018-03-07T08:36:00.630Z,14.80
2018-03-07T08:38:32.677Z,14.07
2018-03-07T08:41:03.884Z,13.53
2018-03-07T08:43:34.998Z,12.73
2018-03-07T08:46:07.395Z,13.17
2018-03-07T08:48:38.558Z,11.73
2018-03-07T08:51:09.748Z,11.73
2018-03-07T08:53:49.463Z,11.23
2018-03-07T08:56:22.214Z,11.83
2018-03-07T08:58:53.065Z,10.63
2018-03-07T09:01:24.429Z,10.33
2018-03-07T09:03:55.676Z,9.77
2018-03-07T09:06:31.528Z,9.50
2018-03-07T09:09:02.640Z,8.60
2018-03-07T09:11:33.602Z,9.43
2018-03-07T09:14:04.645Z,8.03
2018-03-07T09:16:35.608Z,8.13
2018-03-07T09:19:17.434Z,6.10
2018-03-07T09:21:55.779Z,6.20
2018-03-07T09:24:27.142Z,6.20
2018-03-07T09:26:58.760Z,6.30
2018-03-07T09:29:29.586Z,6.53
2018-03-07T09:32:01.345Z,5.37
2018-03-07T09:34:37.026Z,6.27
2018-03-07T09:37:18.425Z,6.63
2018-03-07T09:39:51.132Z,6.20
2018-03-07T09:42:25.180Z,6.30
2018-03-07T09:44:58.720Z,6.00
2018-03-07T09:47:30.136Z,6.00
2018-03-07T09:50:01.355Z,6.23
2018-03-07T09:52:33.571Z,5.80
2018-03-07T09:55:06.726Z,5.70
2018-03-07T09:57:39.526Z,5.47
2018-03-07T10:00:39.862Z,5.50
2018-03-07T10:03:12.314Z,4.43
2018-03-07T10:05:50.122Z,4.80
2018-03-07T10:08:26.660Z,4.30
2018-03-07T10:11:02.439Z,4.57
2018-03-07T10:13:35.190Z,4.40
2018-03-07T10:16:08.855Z,4.27
2018-03-07T10:18:45.270Z,3.57
2018-03-07T10:21:18.261Z,4.10
2018-03-07T10:23:51.613Z,3.77
2018-03-07T10:26:24.998Z,4.20
2018-03-07T10:29:13.476Z,4.20
2018-03-07T10:31:49.304Z,4.07
2018-03-07T10:34:24.856Z,4.10
2018-03-07T10:36:56.643Z,4.63
2018-03-07T10:39:31.022Z,4.80
2018-03-07T10:42:03.180Z,5.03
2018-03-07T10:44:37.812Z,4.43
2018-03-07T10:47:09.639Z,4.97
2018-03-07T10:49:41.098Z,4.50
2018-03-07T10:52:12.447Z,4.17
2018-03-07T10:54:44.188Z,4.77
2018-03-07T10:57:15.334Z,4.23
2018-03-07T10:59:47.558Z,4.90
2018-03-07T11:02:18.595Z,4.40
2018-03-07T11:04:49.529Z,4.93
2018-03-07T11:07:21.731Z,4.57
2018-03-07T11:09:52.953Z,5.07
2018-03-07T11:12:25.257Z,4.60
2018-03-07T11:15:01.069Z,4.67
2018-03-07T11:17:33.752Z,4.97
2018-03-07T11:20:05.556Z,4.43
2018-03-07T11:22:37.996Z,4.73
2018-03-07T11:25:09.925Z,5.17
2018-03-07T11:27:40.850Z,4.50
2018-03-07T11:30:11.916Z,4.57
2018-03-07T11:33:09.534Z,4.57
2018-03-07T11:35:40.713Z,4.00
2018-03-07T11:38:12.276Z,3.80
2018-03-07T11:40:45.401Z,3.80
2018-03-07T11:43:20.240Z,4.10
2018-03-07T11:45:54.033Z,3.97
2018-03-07T11:48:32.013Z,3.50
2018-03-07T11:51:03.230Z,3.40
2018-03-07T11:53:35.345Z,3.83
2018-03-07T11:56:14.234Z,3.03
2018-03-07T11:58:46.132Z,3.40
2018-03-07T12:01:46.144Z,3.10
2018-03-07T12:04:43.548Z,3.23
2018-03-07T12:07:14.659Z,3.50
2018-03-07T12:09:46.492Z,3.57
2018-03-07T12:12:17.641Z,3.90
2018-03-07T12:15:04.578Z,4.43
2018-03-07T12:17:35.865Z,2.93
2018-03-07T12:20:10.807Z,2.80
2018-03-07T12:23:00.006Z,2.67
2018-03-07T12:25:38.858Z,2.80
2018-03-07T12:28:12.760Z,2.70
2018-03-07T12:30:48.107Z,2.57
2018-03-07T12:33:24.486Z,2.90
2018-03-07T12:36:03.386Z,2.80
2018-03-07T12:41:30.727Z,2.27
2018-03-07T12:44:17.578Z,2.27
2018-03-07T12:46:49.677Z,2.10
2018-03-07T12:49:35.704Z,1.90
2018-03-07T12:52:15.599Z,1.90
2018-03-07T12:55:00.886Z,2.07
2018-03-07T12:57:46.470Z,2.03
2018-03-07T13:00:24.761Z,2.37
2018-03-07T13:03:08.818Z,2.00
2018-03-07T13:05:41.691Z,1.83
2018-03-07T13:08:15.496Z,2.27
2018-03-07T13:10:50.016Z,1.70
2018-03-07T13:13:25.246Z,2.80
2018-03-07T13:15:58.577Z,1.90
2018-03-07T13:18:30.844Z,2.30
2018-03-07T13:21:07.706Z,2.30
2018-03-07T13:23:44.890Z,1.67
2018-03-07T13:26:22.167Z,3.67
2018-03-07T13:28:53.524Z,1.20
2018-03-07T13:31:28.138Z,1.57
2018-03-07T13:34:00.879Z,1.90
2018-03-07T13:36:31.922Z,1.87
2018-03-07T13:39:08.017Z,1.80
2018-03-07T13:41:39.453Z,1.50
2018-03-07T13:44:11.363Z,1.77
2018-03-07T13:49:37.301Z,1.40
2018-03-07T13:52:14.257Z,1.40
2018-03-07T13:54:50.421Z,1.53
2018-03-07T13:57:27.575Z,1.57
2018-03-07T13:59:59.542Z,1.80
2018-03-07T14:02:33.574Z,2.17
2018-03-07T14:05:09.389Z,1.30
2018-03-07T14:07:40.329Z,1.60
2018-03-07T14:10:14.621Z,1.40
2018-03-07T14:12:46.761Z,1.63
2018-03-07T14:15:25.102Z,1.63
2018-03-07T14:17:59.061Z,1.63
2018-03-07T14:20:32.102Z,1.40
2018-03-07T14:23:05.667Z,1.40
2018-03-07T14:28:38.028Z,1.30
2018-03-07T14:31:10.804Z,1.83
2018-03-07T14:33:42.918Z,1.50
2018-03-07T14:36:17.440Z,1.33
2018-03-07T14:38:49.233Z,1.50
2018-03-07T14:41:19.815Z,1.10
2018-03-07T14:43:52.621Z,1.40
2018-03-07T14:46:25.697Z,1.43
2018-03-07T14:48:59.656Z,1.30
2018-03-07T14:51:32.706Z,1.63
2018-03-07T14:54:04.781Z,1.40
2018-03-07T14:56:37.601Z,1.70
2018-03-07T14:59:08.398Z,1.60
2018-03-07T15:01:41.692Z,1.23
2018-03-07T15:04:13.294Z,1.10
2018-03-07T15:06:44.242Z,1.13
2018-03-07T15:09:16.219Z,1.60
2018-03-07T15:11:47.252Z,1.30
2018-03-07T15:14:20.855Z,2.30
2018-03-07T15:16:52.979Z,1.53
2018-03-07T15:19:24.439Z,0.80
2018-03-07T15:21:59.291Z,1.10
2018-03-07T15:24:34.206Z,1.30
2018-03-07T15:29:55.329Z,1.00
2018-03-07T15:32:28.479Z,0.97
2018-03-07T15:35:04.749Z,2.40
2018-03-07T15:37:38.664Z,0.90
2018-03-07T15:40:23.258Z,1.83
2018-03-07T15:42:53.955Z,0.80
2018-03-07T15:46:03.827Z,0.70
2018-03-07T15:48:34.632Z,1.00
2018-03-07T15:51:06.136Z,2.13
2018-03-07T15:53:36.720Z,0.90
2018-03-07T15:56:07.890Z,1.50
2018-03-07T15:58:40.300Z,1.60
2018-03-07T16:01:14.153Z,0.90
2018-03-07T16:03:44.972Z,1.00
2018-03-07T16:06:19.585Z,1.93
2018-03-07T16:09:01.207Z,1.63
2018-03-07T16:11:38.256Z,1.60
2018-03-07T16:14:18.511Z,1.60
2018-03-07T16:16:52.620Z,1.20
2018-03-07T16:19:29.294Z,7.00
2018-03-07T16:22:14.296Z,7.63
2018-03-07T16:24:47.455Z,3.53
2018-03-07T16:27:19.884Z,1.80
2018-03-07T16:29:51.004Z,1.50
2018-03-07T16:32:21.567Z,1.90
2018-03-07T16:34:55.307Z,1.60
2018-03-07T16:37:26.641Z,1.90
2018-03-07T16:39:58.535Z,2.50
2018-03-07T16:42:31.058Z,2.13
2018-03-07T16:45:01.763Z,1.73
2018-03-07T16:47:33.125Z,1.40
2018-03-07T16:50:04.234Z,1.20
2018-03-07T16:52:37.526Z,1.87
2018-03-07T16:55:08.179Z,1.70
2018-03-07T17:00:24.116Z,3.03
2018-03-07T17:02:59.563Z,1.50
2018-03-07T17:05:30.495Z,1.43
2018-03-07T17:08:01.392Z,2.50
2018-03-07T17:10:35.895Z,1.50
2018-03-07T17:13:07.230Z,1.50
2018-03-07T17:15:37.746Z,1.60
2018-03-07T17:18:09.586Z,2.00
2018-03-07T17:20:40.767Z,1.63
2018-03-07T17:23:11.270Z,2.03
2018-03-07T17:25:41.846Z,2.10
2018-03-07T17:28:12.968Z,2.50
2018-03-07T17:30:43.664Z,2.50
2018-03-07T17:33:14.514Z,2.00
2018-03-07T17:35:46.650Z,2.30
2018-03-07T17:38:17.364Z,2.10
2018-03-07T17:40:48.862Z,2.73
2018-03-07T17:43:20.019Z,2.73
2018-03-07T17:45:50.563Z,2.70
2018-03-07T17:48:21.350Z,2.97
2018-03-07T17:50:52.338Z,3.30
2018-03-07T17:53:23.842Z,3.30
2018-03-07T17:55:54.479Z,3.40
2018-03-07T17:58:28.001Z,3.43
2018-03-07T18:01:02.905Z,3.60
2018-03-07T18:03:34.484Z,4.50
2018-03-07T18:06:04.975Z,4.13
2018-03-07T18:08:35.498Z,4.13
2018-03-07T18:11:06.254Z,4.27
2018-03-07T18:13:36.936Z,4.00
2018-03-07T18:16:21.196Z,4.03
2018-03-07T18:18:52.875Z,4.60
2018-03-07T18:21:25.097Z,4.50
2018-03-07T18:23:55.659Z,4.20
2018-03-07T18:26:26.970Z,4.87
2018-03-07T18:29:01.406Z,4.70
2018-03-07T18:31:31.910Z,4.70
2018-03-07T18:34:04.443Z,4.23
2018-03-07T18:36:35.723Z,4.60
2018-03-07T18:39:07.220Z,4.80
2018-03-07T18:41:38.081Z,4.80
2018-03-07T18:44:10.222Z,5.07
2018-03-07T18:46:40.625Z,4.10
2018-03-07T18:49:14.043Z,3.90
2018-03-07T18:51:44.545Z,3.90
2018-03-07T18:54:15.303Z,4.57
2018-03-07T18:56:46.634Z,4.17
2018-03-07T18:59:17.253Z,4.57
2018-03-07T19:01:47.830Z,4.47
2018-03-07T19:04:19.912Z,4.30
2018-03-07T19:06:50.797Z,4.67
2018-03-07T19:09:21.345Z,4.53
2018-03-07T19:11:52.008Z,5.23
2018-03-07T19:14:26.474Z,5.07
2018-03-07T19:16:57.350Z,4.57
2018-03-07T19:19:29.193Z,4.90
2018-03-07T19:21:59.864Z,4.90
2018-03-07T19:24:30.618Z,4.30
2018-03-07T19:27:02.695Z,4.40
2018-03-07T19:29:34.245Z,4.63
2018-03-07T19:32:04.683Z,5.97
2018-03-07T19:34:35.790Z,4.50
2018-03-07T19:37:06.363Z,5.27
2018-03-07T19:39:36.684Z,5.13
2018-03-07T19:42:08.172Z,4.47
2018-03-07T19:44:40.487Z,5.10
2018-03-07T19:47:12.389Z,5.27
2018-03-07T19:49:44.881Z,4.20
2018-03-07T19:52:16.376Z,4.23
2018-03-07T19:54:46.870Z,4.73
2018-03-07T19:57:18.093Z,4.80
2018-03-07T19:59:49.538Z,4.47
2018-03-07T20:02:20.454Z,4.33
2018-03-07T20:04:51.089Z,4.20
2018-03-07T20:07:24.716Z,4.27
2018-03-07T20:09:55.855Z,4.40
2018-03-07T20:12:26.540Z,4.53
2018-03-07T20:14:57.229Z,4.63
2018-03-07T20:17:28.993Z,4.80
2018-03-07T20:20:00.609Z,4.13
2018-03-07T20:22:31.423Z,4.57
2018-03-07T20:25:02.344Z,5.23
2018-03-07T20:27:32.820Z,4.27
2018-03-07T20:30:03.294Z,3.73
2018-03-07T20:32:36.309Z,3.67
2018-03-07T20:35:06.914Z,3.30
2018-03-07T20:37:38.210Z,3.27
2018-03-07T20:40:09.082Z,3.20
2018-03-07T20:42:40.742Z,3.50
2018-03-07T20:45:12.133Z,2.90
2018-03-07T20:47:43.869Z,3.60
2018-03-07T20:53:17.715Z,2.50
2018-03-07T20:55:51.152Z,2.10
2018-03-07T20:59:01.557Z,2.30
2018-03-07T21:01:40.465Z,2.37
2018-03-07T21:04:12.559Z,2.60
2018-03-07T21:06:46.590Z,2.70
2018-03-07T21:09:16.990Z,3.50
2018-03-07T21:11:49.578Z,3.23
2018-03-07T21:14:20.661Z,3.50
2018-03-07T21:16:52.636Z,3.93
2018-03-07T21:19:23.015Z,3.63
2018-03-07T21:21:53.527Z,3.42
2018-03-07T21:24:27.519Z,4.27
2018-03-07T21:27:01.234Z,3.97
2018-03-07T21:29:33.365Z,3.50
2018-03-07T21:32:04.631Z,3.80
2018-03-07T21:34:36.263Z,3.70
2018-03-07T21:37:06.772Z,4.10
2018-03-07T21:39:39.065Z,4.00
2018-03-07T21:42:10.111Z,4.20
2018-03-07T21:44:40.658Z,4.68
2018-03-07T21:47:12.233Z,4.50
2018-03-07T21:49:43.076Z,4.67
2018-03-07T21:52:14.702Z,4.80
2018-03-07T21:54:47.156Z,4.57
2018-03-07T21:57:18.078Z,4.35
2018-03-07T21:59:50.364Z,5.47
2018-03-07T22:02:20.971Z,4.57
2018-03-07T22:04:51.864Z,4.60
2018-03-07T22:07:22.367Z,4.73
2018-03-07T22:09:53.934Z,5.15
2018-03-07T22:12:25.764Z,5.03
2018-03-07T22:14:56.346Z,5.72
2018-03-07T22:17:27.166Z,5.47
2018-03-07T22:19:59.130Z,5.75
2018-03-07T22:22:30.687Z,5.68
2018-03-07T22:25:02.146Z,6.10
2018-03-07T22:27:33.274Z,5.67
2018-03-07T22:30:04.854Z,5.72
2018-03-07T22:32:36.992Z,5.70
2018-03-07T22:35:09.569Z,5.73
2018-03-07T22:37:40.888Z,6.03
2018-03-07T22:40:13.137Z,6.20
2018-03-07T22:42:44.403Z,6.10
2018-03-07T22:45:14.968Z,6.95
2018-03-07T22:47:46.596Z,6.30
2018-03-07T22:50:18.995Z,6.27
2018-03-07T22:52:50.250Z,6.07
2018-03-07T22:55:20.935Z,6.70
2018-03-07T22:57:51.733Z,6.72
2018-03-07T23:00:28.795Z,5.90
2018-03-07T23:03:02.493Z,6.05
2018-03-07T23:08:18.386Z,6.37
2018-03-07T23:10:48.987Z,6.97
2018-03-07T23:13:23.528Z,6.33
2018-03-07T23:15:54.868Z,7.32
2018-03-07T23:18:27.027Z,6.22
2018-03-07T23:20:57.639Z,6.23
2018-03-07T23:23:29.286Z,6.23
2018-03-07T23:26:00.238Z,7.03
2018-03-07T23:28:31.440Z,7.00
2018-03-07T23:31:03.772Z,6.40
2018-03-07T23:33:35.078Z,6.65
2018-03-07T23:36:05.958Z,6.62
2018-03-07T23:38:36.789Z,6.25
2018-03-07T23:41:07.579Z,6.20
2018-03-07T23:43:38.689Z,6.03
2018-03-07T23:46:09.717Z,6.80
2018-03-07T23:48:40.838Z,6.65
2018-03-07T23:54:12.759Z,6.00
2018-03-07T23:56:44.075Z,5.60
2018-03-07T23:59:16.838Z,6.05
